CheckWX is a tool to help pilots better visualize weather data.  It is not intended as a substitute for an official pre-flight weather briefing.

05:15:10 UTC

KMGW TAF
Morgantown Municipal-Walter L Bill Hart Field Airport
Morgantown, West Virginia, USA
KMGW 240405Z 2404/2424 13008KT P6SM OVC070 FM240500 15009KT 6SM -RA OVC025 FM240800 17010G18KT 3SM -RA OVC015 FM241100 20011G24KT 6SM -SHRA OVC015 FM241400 22013G38KT P6SM VCSH OVC035 FM242100 26021G49KT P6SM VCSH OVC025

Feb-24@
04:00 UTC

Feb-24 @ 04:00 UTC

Feb-24@
05:00 UTC

Feb-24 @ 05:00 UTC

KMGW 240405Z 2404/2424 13008KT P6SM OVC070

Expired

Wind
  • 130° at 8 KTS
Cloud Levels
  • Overcast at 7,000' AGL

Feb-24@
05:00 UTC

Feb-24 @ 05:00 UTC

Feb-24@
08:00 UTC

Feb-24 @ 08:00 UTC

FM240500 15009KT 6SM -RA OVC025

From

From Standard forecast or significant change

Wind
  • 150° at 9 KTS
Conditions
Light Rain
Cloud Levels
  • Overcast at 2,500' AGL

Feb-24@
08:00 UTC

Feb-24 @ 08:00 UTC

Feb-24@
11:00 UTC

Feb-24 @ 11:00 UTC

FM240800 17010G18KT 3SM -RA OVC015

From

From Standard forecast or significant change

Wind
  • 170° at 10 KTS
  • {Gusting to 18 KTS
Conditions
Light Rain
Cloud Levels
  • Overcast at 1,500' AGL

Feb-24@
11:00 UTC

Feb-24 @ 11:00 UTC

Feb-24@
14:00 UTC

Feb-24 @ 14:00 UTC

FM241100 20011G24KT 6SM -SHRA OVC015

From

From Standard forecast or significant change

Wind
  • 200° at 11 KTS
  • {Gusting to 24 KTS
Conditions
Light Rain
Cloud Levels
  • Overcast at 1,500' AGL

Feb-24@
14:00 UTC

Feb-24 @ 14:00 UTC

Feb-24@
21:00 UTC

Feb-24 @ 21:00 UTC

FM241400 22013G38KT P6SM VCSH OVC035

From

From Standard forecast or significant change

Wind
  • 220° at 13 KTS
  • {Gusting to 38 KTS
Cloud Levels
  • Overcast at 3,500' AGL

Feb-24@
21:00 UTC

Feb-24 @ 21:00 UTC

Feb-25@
00:00 UTC

Feb-25 @ 00:00 UTC

FM242100 26021G49KT P6SM VCSH OVC025

From

From Standard forecast or significant change

Wind
  • 260° at 21 KTS
  • {Gusting to 49 KTS
Cloud Levels
  • Overcast at 2,500' AGL